createdAt,value
2019-02-16T00:02:11.117Z,1.90
2019-02-16T00:05:15.173Z,3.00
2019-02-16T00:08:19.244Z,2.60
2019-02-16T00:11:23.280Z,2.60
2019-02-16T00:14:27.336Z,2.73
2019-02-16T00:17:31.375Z,2.60
2019-02-16T00:20:35.431Z,2.47
2019-02-16T00:23:39.475Z,2.23
2019-02-16T00:26:43.528Z,2.33
2019-02-16T00:29:47.585Z,2.77
2019-02-16T00:32:51.622Z,2.67
2019-02-16T00:35:55.682Z,1.93
2019-02-16T00:38:59.720Z,2.47
2019-02-16T00:42:03.782Z,2.23
2019-02-16T00:45:07.991Z,2.57
2019-02-16T00:48:12.051Z,2.30
2019-02-16T00:51:16.112Z,2.30
2019-02-16T00:54:20.140Z,2.00
2019-02-16T00:57:24.200Z,2.60
2019-02-16T01:00:28.236Z,2.37
2019-02-16T01:03:32.295Z,2.13
2019-02-16T01:06:36.359Z,2.47
2019-02-16T01:09:40.392Z,2.30
2019-02-16T01:12:44.447Z,2.30
2019-02-16T01:15:48.484Z,2.50
2019-02-16T01:18:52.546Z,2.80
2019-02-16T01:21:56.577Z,2.40
2019-02-16T01:25:00.662Z,2.30
2019-02-16T01:28:04.695Z,2.57
2019-02-16T01:31:08.733Z,2.10
2019-02-16T01:34:12.794Z,1.93
2019-02-16T01:37:16.828Z,2.73
2019-02-16T01:40:20.897Z,2.10
2019-02-16T01:43:24.979Z,1.93
2019-02-16T01:46:29.015Z,2.17
2019-02-16T01:49:33.071Z,2.40
2019-02-16T01:52:37.105Z,1.90
2019-02-16T01:55:41.165Z,2.10
2019-02-16T01:58:45.230Z,2.10
2019-02-16T02:01:49.266Z,2.50
2019-02-16T02:04:53.330Z,2.27
2019-02-16T02:07:57.364Z,1.93
2019-02-16T02:11:01.424Z,1.50
2019-02-16T02:14:05.460Z,2.13
2019-02-16T02:17:09.517Z,2.53
2019-02-16T02:20:13.576Z,2.03
2019-02-16T02:23:17.611Z,1.77
2019-02-16T02:26:21.668Z,1.70
2019-02-16T02:29:25.706Z,2.30
2019-02-16T02:32:29.762Z,1.87
2019-02-16T02:35:33.797Z,1.90
2019-02-16T02:38:37.853Z,2.00
2019-02-16T02:41:41.909Z,2.00
2019-02-16T02:44:46.011Z,2.60
2019-02-16T02:47:50.071Z,1.90
2019-02-16T02:50:54.105Z,1.90
2019-02-16T02:53:58.173Z,2.07
2019-02-16T02:57:02.221Z,1.83
2019-02-16T03:00:08.699Z,2.00
2019-02-16T03:03:12.748Z,1.60
2019-02-16T03:06:16.786Z,2.13
2019-02-16T03:09:20.853Z,1.83
2019-02-16T03:12:24.880Z,2.33
2019-02-16T03:15:28.942Z,2.00
2019-02-16T03:18:33.000Z,1.77
2019-02-16T03:21:37.037Z,2.23
2019-02-16T03:24:41.363Z,1.90
2019-02-16T03:27:48.657Z,1.90
2019-02-16T03:31:12.707Z,1.50
2019-02-16T03:34:20.424Z,1.50
2019-02-16T03:37:59.059Z,1.80
2019-02-16T03:41:04.212Z,2.30
2019-02-16T03:44:08.314Z,1.70
2019-02-16T03:47:12.372Z,1.50
2019-02-16T03:50:16.434Z,1.70
2019-02-16T03:53:20.467Z,1.73
2019-02-16T03:56:24.520Z,1.90
2019-02-16T03:59:28.556Z,1.70
2019-02-16T04:02:32.622Z,2.20
2019-02-16T04:05:36.686Z,1.90
2019-02-16T04:08:40.725Z,1.53
2019-02-16T04:11:44.782Z,1.50
2019-02-16T04:14:48.826Z,1.73
2019-02-16T04:17:52.882Z,2.07
2019-02-16T04:20:56.942Z,1.67
2019-02-16T04:24:01.003Z,1.80
2019-02-16T04:27:05.033Z,1.43
2019-02-16T04:30:09.069Z,1.47
2019-02-16T04:33:13.131Z,1.87
2019-02-16T04:36:17.185Z,1.60
2019-02-16T04:39:21.230Z,1.70
2019-02-16T04:42:25.281Z,1.57
2019-02-16T04:45:29.320Z,1.90
2019-02-16T04:48:33.375Z,1.90
2019-02-16T04:51:37.500Z,1.50
2019-02-16T04:54:41.538Z,1.80
2019-02-16T04:57:45.593Z,1.87
2019-02-16T05:00:49.629Z,1.63
2019-02-16T05:03:53.691Z,1.77
2019-02-16T05:06:57.726Z,1.43
2019-02-16T05:10:01.806Z,1.50
2019-02-16T05:13:05.845Z,1.57
2019-02-16T05:16:09.880Z,1.87
2019-02-16T05:19:13.942Z,1.73
2019-02-16T05:22:17.978Z,1.40
2019-02-16T05:25:22.033Z,1.70
2019-02-16T05:28:26.101Z,1.30
2019-02-16T05:31:30.162Z,1.27
2019-02-16T05:34:34.204Z,1.53
2019-02-16T05:37:38.233Z,1.47
2019-02-16T05:40:42.291Z,1.80
2019-02-16T05:43:46.324Z,1.43
2019-02-16T05:46:50.383Z,1.77
2019-02-16T05:49:54.453Z,1.37
2019-02-16T05:52:58.491Z,1.47
2019-02-16T05:56:02.549Z,1.60
2019-02-16T05:59:08.154Z,1.90
2019-02-16T06:02:12.323Z,1.10
2019-02-16T06:05:16.388Z,1.70
2019-02-16T06:08:20.421Z,1.67
2019-02-16T06:11:24.476Z,1.37
2019-02-16T06:14:28.516Z,1.80
2019-02-16T06:17:32.568Z,1.30
2019-02-16T06:20:36.604Z,1.60
2019-02-16T06:23:40.672Z,1.10
2019-02-16T06:26:44.744Z,1.47
2019-02-16T06:29:48.781Z,1.83
2019-02-16T06:32:52.841Z,1.90
2019-02-16T06:35:58.518Z,1.30
2019-02-16T06:39:02.810Z,1.43
2019-02-16T06:42:06.808Z,1.57
2019-02-16T06:45:10.846Z,1.40
2019-02-16T06:48:14.906Z,1.40
2019-02-16T06:51:18.949Z,1.37
2019-02-16T06:54:23.011Z,1.50
2019-02-16T06:57:28.621Z,1.00
2019-02-16T07:00:32.681Z,1.30
2019-02-16T07:03:36.737Z,1.30
2019-02-16T07:06:40.883Z,1.27
2019-02-16T07:09:44.979Z,1.17
2019-02-16T07:12:49.014Z,1.13
2019-02-16T07:16:10.909Z,1.40
2019-02-16T07:19:22.641Z,1.27
2019-02-16T07:22:26.678Z,1.67
2019-02-16T07:25:30.737Z,1.30
2019-02-16T07:28:34.773Z,1.20
2019-02-16T07:31:38.829Z,1.20
2019-02-16T07:34:42.891Z,1.23
2019-02-16T07:37:46.950Z,1.30
2019-02-16T07:40:50.989Z,1.30
2019-02-16T07:43:56.667Z,1.10
2019-02-16T07:47:17.449Z,1.27
2019-02-16T07:50:25.838Z,1.20
2019-02-16T07:53:31.753Z,1.30
2019-02-16T07:56:40.071Z,3.67
2019-02-16T08:00:00.853Z,3.70
2019-02-16T08:03:21.802Z,3.97
2019-02-16T08:06:42.733Z,3.50
2019-02-16T08:10:03.474Z,5.07
2019-02-16T08:13:12.043Z,4.07
2019-02-16T08:16:23.552Z,3.97
2019-02-16T08:19:41.412Z,3.08
2019-02-16T08:22:49.676Z,2.87
2019-02-16T08:25:55.376Z,2.30
2019-02-16T08:29:03.937Z,2.70
2019-02-16T08:32:26.025Z,2.67
2019-02-16T08:35:31.724Z,2.63
2019-02-16T08:38:37.403Z,3.23
2019-02-16T08:41:43.104Z,3.00
2019-02-16T08:44:48.779Z,2.47
2019-02-16T08:48:12.565Z,2.73
2019-02-16T08:51:34.413Z,2.50
2019-02-16T08:54:52.170Z,2.40
2019-02-16T08:58:00.391Z,2.90
2019-02-16T09:01:11.581Z,2.72
2019-02-16T09:04:29.265Z,3.03
2019-02-16T09:07:34.956Z,2.70
2019-02-16T09:10:56.930Z,3.53
2019-02-16T09:14:02.629Z,2.93
2019-02-16T09:17:13.923Z,2.67
2019-02-16T09:20:25.331Z,2.97
2019-02-16T09:23:39.551Z,2.77
2019-02-16T09:26:45.225Z,2.70
2019-02-16T09:29:50.920Z,3.33
2019-02-16T09:32:56.622Z,2.70
2019-02-16T09:36:02.293Z,3.40
2019-02-16T09:39:07.990Z,4.00
2019-02-16T09:42:25.648Z,4.20
2019-02-16T09:45:33.998Z,4.47
2019-02-16T09:48:42.392Z,6.33
2019-02-16T09:51:50.982Z,6.00
2019-02-16T09:54:56.691Z,5.77
2019-02-16T09:58:11.135Z,7.37
2019-02-16T10:01:22.551Z,6.63
2019-02-16T10:04:30.914Z,6.23
2019-02-16T10:07:36.591Z,6.43
2019-02-16T10:10:42.294Z,6.80
2019-02-16T10:13:50.686Z,7.27
2019-02-16T10:16:56.387Z,8.07
2019-02-16T10:20:07.836Z,7.23
2019-02-16T10:23:13.516Z,7.27
2019-02-16T10:26:19.214Z,7.80
2019-02-16T10:29:27.934Z,7.53
2019-02-16T10:32:51.673Z,6.30
2019-02-16T10:35:57.375Z,6.33
2019-02-16T10:39:03.052Z,6.50
2019-02-16T10:42:11.485Z,6.20
2019-02-16T10:45:17.185Z,6.70
2019-02-16T10:48:34.468Z,6.27
2019-02-16T10:51:40.161Z,6.50
2019-02-16T10:54:57.670Z,6.53
2019-02-16T10:58:03.369Z,6.57
2019-02-16T11:01:25.299Z,6.77
2019-02-16T11:04:40.084Z,6.43
2019-02-16T11:07:51.774Z,6.33
2019-02-16T11:11:06.415Z,6.30
2019-02-16T11:14:12.098Z,6.50
2019-02-16T11:17:26.822Z,6.23
2019-02-16T11:20:35.421Z,7.07
2019-02-16T11:23:55.874Z,7.77
2019-02-16T11:27:13.534Z,7.70
2019-02-16T11:30:24.927Z,7.43
2019-02-16T11:33:39.368Z,7.20
2019-02-16T11:36:57.330Z,6.50
2019-02-16T11:40:03.015Z,7.00
2019-02-16T11:43:11.468Z,6.07
2019-02-16T11:46:17.132Z,5.63
2019-02-16T11:49:31.607Z,5.93
2019-02-16T11:52:37.305Z,5.90
2019-02-16T11:55:48.785Z,5.10
2019-02-16T11:58:57.303Z,5.13
2019-02-16T12:02:03.000Z,5.70
2019-02-16T12:05:08.676Z,5.33
2019-02-16T12:08:29.674Z,5.07
2019-02-16T12:11:41.361Z,4.77
2019-02-16T12:14:53.005Z,4.57
2019-02-16T12:17:58.706Z,4.80
2019-02-16T12:21:06.934Z,4.00
2019-02-16T12:24:12.628Z,4.50
2019-02-16T12:27:24.585Z,4.00
2019-02-16T12:30:36.297Z,4.00
2019-02-16T12:34:06.008Z,4.40
2019-02-16T12:37:11.690Z,3.93
2019-02-16T12:40:26.715Z,4.30
2019-02-16T12:43:41.380Z,4.13
2019-02-16T12:46:47.058Z,3.73
2019-02-16T12:50:07.531Z,3.50
2019-02-16T12:53:13.225Z,3.97
2019-02-16T12:56:21.887Z,3.07
2019-02-16T12:59:45.864Z,3.40
2019-02-16T13:02:54.118Z,3.57
2019-02-16T13:06:08.980Z,2.73
2019-02-16T13:09:14.682Z,2.93
2019-02-16T13:12:26.228Z,2.80
2019-02-16T13:15:40.748Z,3.07
2019-02-16T13:18:46.446Z,3.30
2019-02-16T13:21:52.127Z,2.87
2019-02-16T13:25:00.862Z,2.93
2019-02-16T13:28:09.535Z,3.07
2019-02-16T13:31:31.399Z,4.30
2019-02-16T13:34:46.306Z,5.53
2019-02-16T13:37:51.989Z,5.67
2019-02-16T13:41:12.738Z,5.03
2019-02-16T13:44:23.980Z,5.60
2019-02-16T13:47:32.537Z,4.90
2019-02-16T13:50:41.173Z,5.60
2019-02-16T13:54:02.828Z,4.67
2019-02-16T13:57:08.531Z,5.20
2019-02-16T14:00:14.238Z,4.87
2019-02-16T14:03:25.788Z,4.60
2019-02-16T14:06:47.878Z,4.50
2019-02-16T14:09:53.561Z,4.30
2019-02-16T14:13:15.406Z,4.70
2019-02-16T14:16:21.110Z,5.23
2019-02-16T14:19:25.165Z,4.67
2019-02-16T14:22:29.209Z,4.47
2019-02-16T14:25:43.640Z,3.80
2019-02-16T14:28:43.564Z,4.40
2019-02-16T14:31:47.624Z,4.70
2019-02-16T14:34:51.666Z,4.37
2019-02-16T14:38:15.419Z,3.67
2019-02-16T14:41:19.482Z,4.13
2019-02-16T14:44:23.525Z,4.27
2019-02-16T14:47:27.582Z,3.93
2019-02-16T14:50:31.624Z,3.70
2019-02-16T14:53:35.682Z,4.50
2019-02-16T14:56:39.743Z,3.60
2019-02-16T14:59:43.779Z,3.47
2019-02-16T15:02:47.842Z,3.70
2019-02-16T15:05:51.879Z,3.93
2019-02-16T15:08:55.938Z,3.63
2019-02-16T15:11:59.996Z,3.93
2019-02-16T15:15:04.877Z,3.80
2019-02-16T15:18:08.937Z,3.20
2019-02-16T15:21:12.969Z,3.57
2019-02-16T15:24:17.028Z,3.35
2019-02-16T15:27:21.091Z,3.17
2019-02-16T15:30:25.133Z,3.73
2019-02-16T15:33:29.198Z,3.17
2019-02-16T15:36:33.232Z,3.60
2019-02-16T15:39:37.293Z,3.07
2019-02-16T15:42:41.356Z,3.37
2019-02-16T15:45:45.397Z,3.97
2019-02-16T15:48:49.459Z,3.17
2019-02-16T15:51:53.598Z,3.27
2019-02-16T15:54:57.636Z,2.63
2019-02-16T15:58:01.709Z,3.13
2019-02-16T16:01:05.793Z,2.93
2019-02-16T16:04:09.812Z,3.57
2019-02-16T16:07:15.489Z,3.43
2019-02-16T16:10:33.214Z,3.33
2019-02-16T16:13:41.398Z,3.30
2019-02-16T16:17:02.156Z,3.33
2019-02-16T16:20:10.367Z,3.12
2019-02-16T16:23:19.069Z,3.30
2019-02-16T16:26:40.990Z,2.87
2019-02-16T16:29:58.792Z,3.00
2019-02-16T16:33:10.689Z,2.93
2019-02-16T16:36:22.472Z,3.03
2019-02-16T16:39:31.129Z,2.90
2019-02-16T16:42:53.030Z,3.50
2019-02-16T16:46:01.491Z,3.22
2019-02-16T16:49:10.162Z,2.33
2019-02-16T16:52:15.880Z,2.97
2019-02-16T16:55:21.533Z,2.73
2019-02-16T16:58:39.394Z,2.83
2019-02-16T17:01:51.063Z,3.03
2019-02-16T17:05:05.524Z,2.70
2019-02-16T17:08:13.893Z,2.70
2019-02-16T17:11:31.691Z,2.67
2019-02-16T17:14:37.390Z,2.30
2019-02-16T17:17:49.004Z,2.70
2019-02-16T17:21:03.648Z,2.97
2019-02-16T17:24:21.409Z,2.17
2019-02-16T17:27:27.089Z,3.27
2019-02-16T17:30:47.795Z,2.73
2019-02-16T17:33:55.907Z,2.73
2019-02-16T17:37:01.585Z,2.30
2019-02-16T17:40:08.621Z,2.87
2019-02-16T17:43:29.380Z,3.07
2019-02-16T17:46:46.684Z,2.83
2019-02-16T17:49:55.098Z,3.90
2019-02-16T17:53:09.789Z,4.57
2019-02-16T17:56:21.307Z,4.73
2019-02-16T17:59:27.020Z,3.47
2019-02-16T18:02:32.694Z,3.57
2019-02-16T18:05:41.349Z,3.70
2019-02-16T18:08:47.029Z,3.33
2019-02-16T18:11:55.654Z,3.13
2019-02-16T18:15:16.346Z,3.43
2019-02-16T18:18:24.506Z,3.70
2019-02-16T18:21:32.954Z,3.47
2019-02-16T18:24:44.639Z,3.60
2019-02-16T18:27:52.750Z,4.23
2019-02-16T18:30:58.452Z,3.00
2019-02-16T18:34:06.797Z,3.33
2019-02-16T18:37:27.242Z,3.23
2019-02-16T18:40:32.917Z,3.40
2019-02-16T18:43:56.875Z,3.53
2019-02-16T18:47:02.573Z,3.77
2019-02-16T18:50:08.276Z,3.73
2019-02-16T18:53:16.786Z,3.43
2019-02-16T18:56:37.462Z,3.37
2019-02-16T18:59:46.123Z,3.20
2019-02-16T19:02:51.826Z,3.03
2019-02-16T19:06:03.187Z,3.23
2019-02-16T19:09:14.601Z,3.07
2019-02-16T19:12:26.257Z,3.23
2019-02-16T19:15:34.639Z,3.83
2019-02-16T19:18:43.253Z,4.03
2019-02-16T19:21:54.621Z,3.87
2019-02-16T19:25:11.952Z,3.63
2019-02-16T19:28:29.918Z,3.00
2019-02-16T19:31:35.607Z,3.50
2019-02-16T19:34:41.301Z,3.00
2019-02-16T19:37:49.742Z,3.77
2019-02-16T19:40:55.501Z,3.47
2019-02-16T19:44:03.978Z,3.60
2019-02-16T19:47:09.652Z,3.83
2019-02-16T19:50:21.278Z,3.90
2019-02-16T19:53:32.937Z,2.97
2019-02-16T19:56:38.637Z,3.80
2019-02-16T19:59:56.615Z,3.70
2019-02-16T20:03:08.305Z,3.63
2019-02-16T20:06:26.221Z,3.40
2019-02-16T20:09:41.043Z,3.53
2019-02-16T20:12:58.678Z,3.40
2019-02-16T20:16:10.333Z,3.83
2019-02-16T20:19:21.698Z,4.07
2019-02-16T20:22:43.470Z,3.13
2019-02-16T20:25:51.860Z,3.80
2019-02-16T20:29:13.772Z,4.00
2019-02-16T20:32:35.832Z,3.70
2019-02-16T20:35:41.534Z,3.67
2019-02-16T20:38:47.208Z,3.40
2019-02-16T20:41:52.909Z,3.27
2019-02-16T20:44:58.586Z,4.07
2019-02-16T20:48:04.289Z,3.47
2019-02-16T20:51:26.025Z,3.27
2019-02-16T20:54:31.700Z,2.93
2019-02-16T20:57:49.445Z,3.93
2019-02-16T21:00:55.140Z,3.80
2019-02-16T21:04:06.627Z,3.60
2019-02-16T21:07:12.323Z,3.87
2019-02-16T21:10:18.036Z,3.73
2019-02-16T21:13:26.395Z,4.40
2019-02-16T21:16:32.094Z,3.60
2019-02-16T21:19:37.769Z,3.20
2019-02-16T21:22:49.285Z,3.53
2019-02-16T21:26:00.725Z,3.40
2019-02-16T21:29:12.808Z,3.50
2019-02-16T21:32:30.605Z,3.43
2019-02-16T21:35:45.222Z,2.97
2019-02-16T21:38:51.487Z,2.83
2019-02-16T21:42:15.698Z,3.30
2019-02-16T21:45:21.374Z,3.60
2019-02-16T21:48:27.075Z,2.77
2019-02-16T21:51:32.750Z,3.10
2019-02-16T21:54:47.650Z,3.07
2019-02-16T21:57:53.350Z,2.60
2019-02-16T22:00:59.028Z,3.10
2019-02-16T22:04:10.651Z,4.07
2019-02-16T22:07:25.090Z,3.33
2019-02-16T22:10:42.573Z,3.47
2019-02-16T22:13:46.636Z,3.20
2019-02-16T22:16:50.674Z,3.03
2019-02-16T22:19:54.728Z,3.03
2019-02-16T22:22:58.769Z,3.37
2019-02-16T22:26:02.820Z,3.63
2019-02-16T22:29:06.882Z,3.07
2019-02-16T22:32:10.917Z,3.13
2019-02-16T22:35:14.976Z,3.67
2019-02-16T22:38:19.037Z,3.47
2019-02-16T22:41:23.071Z,4.47
2019-02-16T22:44:27.128Z,2.83
2019-02-16T22:47:31.164Z,3.67
2019-02-16T22:50:35.220Z,2.80
2019-02-16T22:53:39.276Z,3.10
2019-02-16T22:56:43.317Z,3.40
2019-02-16T22:59:47.375Z,2.83
2019-02-16T23:02:51.414Z,3.83
2019-02-16T23:05:55.472Z,3.70
2019-02-16T23:08:59.532Z,2.80
2019-02-16T23:12:03.847Z,2.90
2019-02-16T23:15:10.237Z,3.30
2019-02-16T23:18:14.273Z,3.43
2019-02-16T23:21:18.331Z,2.77
2019-02-16T23:24:22.388Z,3.73
2019-02-16T23:27:26.424Z,2.97
2019-02-16T23:30:30.485Z,2.87
2019-02-16T23:33:34.531Z,3.23
2019-02-16T23:36:38.576Z,2.90
2019-02-16T23:39:42.607Z,3.27
2019-02-16T23:42:46.665Z,3.90
2019-02-16T23:45:50.732Z,3.10
2019-02-16T23:48:54.768Z,2.80
2019-02-16T23:51:58.827Z,2.77
2019-02-16T23:55:03.156Z,2.30
2019-02-16T23:58:07.196Z,3.00
